createdAt,value
2024-05-09T00:00:45.318Z,0
2024-05-09T00:05:52.178Z,0
2024-05-09T00:11:45.145Z,0
2024-05-09T00:21:52.193Z,0
2024-05-09T00:27:45.012Z,0
2024-05-09T00:32:57.860Z,0
2024-05-09T00:38:45.022Z,0
2024-05-09T00:43:45.060Z,0
2024-05-09T00:48:45.183Z,0
2024-05-09T00:53:51.936Z,0
2024-05-09T00:59:45.814Z,0
2024-05-09T01:04:51.917Z,0
2024-05-09T01:10:51.979Z,0
2024-05-09T01:15:52.141Z,0
2024-05-09T01:20:52.182Z,0
2024-05-09T01:26:46.124Z,0
2024-05-09T01:31:45.107Z,0
2024-05-09T01:36:51.776Z,0
2024-05-09T01:41:51.865Z,0
2024-05-09T01:47:45.131Z,0
2024-05-09T01:52:52.430Z,0
2024-05-09T01:58:45.053Z,0
2024-05-09T02:03:45.393Z,0
2024-05-09T02:08:45.041Z,0
2024-05-09T02:13:45.074Z,0
2024-05-09T02:18:52.480Z,0
2024-05-09T02:24:45.025Z,0
2024-05-09T02:29:45.118Z,0
2024-05-09T02:34:51.822Z,0
2024-05-09T02:39:51.793Z,0
2024-05-09T02:44:52.204Z,0
2024-05-09T02:49:52.305Z,0
2024-05-09T02:55:45.041Z,0
2024-05-09T03:00:45.064Z,0
2024-05-09T03:05:51.850Z,0
2024-05-09T03:11:45.334Z,0
2024-05-09T03:16:51.815Z,0
2024-05-09T03:21:51.806Z,0
2024-05-09T03:26:51.817Z,0
2024-05-09T03:31:52.432Z,0
2024-05-09T03:37:45.057Z,0
2024-05-09T03:42:45.018Z,0
2024-05-09T03:47:45.246Z,0
2024-05-09T03:52:52.826Z,0
2024-05-09T03:58:45.027Z,0
2024-05-09T04:03:45.286Z,0
2024-05-09T04:08:45.121Z,0
2024-05-09T04:13:51.929Z,0
2024-05-09T04:18:52.771Z,0
2024-05-09T04:24:45.003Z,0
2024-05-09T04:29:45.025Z,0
2024-05-09T04:34:52.537Z,0
2024-05-09T04:40:45.081Z,0
2024-05-09T04:45:51.817Z,0
2024-05-09T04:51:45.023Z,0
2024-05-09T04:56:51.797Z,0
2024-05-09T05:01:51.954Z,0
2024-05-09T05:06:52.309Z,0
2024-05-09T05:11:52.519Z,0
2024-05-09T05:17:45.195Z,0
2024-05-09T05:22:45.084Z,0
2024-05-09T05:27:52.074Z,0
2024-05-09T05:32:52.485Z,0
2024-05-09T05:38:45.156Z,0
2024-05-09T05:48:45.247Z,0
2024-05-09T05:53:52.709Z,0
2024-05-09T05:59:45.079Z,0
2024-05-09T06:04:45.239Z,0
2024-05-09T06:09:51.937Z,0
2024-05-09T06:15:45.059Z,0
2024-05-09T06:20:52.742Z,0
2024-05-09T06:26:45.039Z,0
2024-05-09T06:31:45.066Z,0
2024-05-09T06:36:51.822Z,0
2024-05-09T06:41:52.518Z,0
2024-05-09T06:47:45.198Z,0
2024-05-09T06:52:45.106Z,0
2024-05-09T06:57:52.750Z,0
2024-05-09T07:03:45.142Z,0
2024-05-09T07:08:45.114Z,0
2024-05-09T07:13:51.987Z,0
2024-05-09T07:18:52.371Z,0
2024-05-09T07:23:52.445Z,0
2024-05-09T07:29:45.124Z,0
2024-05-09T07:34:45.219Z,0
2024-05-09T07:39:51.994Z,0
2024-05-09T07:45:51.747Z,0
2024-05-09T07:55:50.949Z,0
2024-05-09T08:00:51.900Z,0
2024-05-09T08:05:52.717Z,0
2024-05-09T08:11:45.102Z,0
2024-05-09T08:16:45.078Z,0
2024-05-09T08:21:52.654Z,0
2024-05-09T08:27:45.081Z,2.2
2024-05-09T08:32:51.905Z,3.9
2024-05-09T08:37:52.405Z,4.8
2024-05-09T08:42:52.916Z,5.9
2024-05-09T08:48:45.337Z,7.5
2024-05-09T08:53:45.086Z,7.8
2024-05-09T08:58:53.655Z,8.7
2024-05-09T09:03:52.583Z,8.4
2024-05-09T09:08:52.590Z,9.6
2024-05-09T09:14:45.084Z,11.5
2024-05-09T09:19:45.150Z,13
2024-05-09T09:24:51.959Z,14.5
2024-05-09T09:29:51.843Z,15.1
2024-05-09T09:35:45.083Z,14.8
2024-05-09T09:40:49.082Z,15.4
2024-05-09T09:45:45.976Z,15.1
2024-05-09T09:50:45.085Z,15.9
2024-05-09T09:55:52.361Z,15.4
2024-05-09T10:00:52.547Z,17.4
2024-05-09T10:06:47.627Z,17.4
2024-05-09T10:11:59.597Z,19
2024-05-09T10:17:45.156Z,20.1
2024-05-09T10:22:51.892Z,19.5
2024-05-09T10:27:52.444Z,19
2024-05-09T10:32:53.052Z,19.8
2024-05-09T10:38:45.092Z,17.9
2024-05-09T10:43:45.118Z,18.8
2024-05-09T10:48:45.381Z,18.6
2024-05-09T10:53:51.909Z,17.2
2024-05-09T10:59:45.095Z,17.2
2024-05-09T11:04:45.288Z,17
2024-05-09T11:09:45.197Z,17
2024-05-09T11:14:51.885Z,17.5
2024-05-09T11:19:52.438Z,16.1
2024-05-09T11:25:45.127Z,16.4
2024-05-09T11:30:52.675Z,15.5
2024-05-09T11:41:45.199Z,16
2024-05-09T11:46:51.932Z,15
2024-05-09T11:51:52.009Z,15.2
2024-05-09T11:57:45.174Z,14.2
2024-05-09T12:02:45.319Z,14.2
2024-05-09T12:07:54.392Z,13.2
2024-05-09T12:18:52.034Z,14.5
2024-05-09T12:29:45.137Z,13.2
2024-05-09T12:34:45.201Z,11.8
2024-05-09T12:39:45.238Z,13.3
2024-05-09T12:44:52.621Z,14.3
2024-05-09T12:50:45.268Z,14.1
2024-05-09T12:55:56.846Z,13.9
2024-05-09T13:00:53.115Z,10.8
2024-05-09T13:06:45.240Z,10.9
2024-05-09T13:11:45.268Z,12.8
2024-05-09T13:16:51.994Z,11.6
2024-05-09T13:21:52.557Z,10.9
2024-05-09T13:27:45.306Z,9.4
2024-05-09T13:32:45.313Z,9.6
2024-05-09T13:37:45.249Z,11.2
2024-05-09T13:42:52.735Z,12.5
2024-05-09T13:48:45.431Z,11.1
2024-05-09T13:54:45.287Z,12.6
2024-05-09T13:59:45.196Z,12.8
2024-05-09T14:04:45.404Z,12.6
2024-05-09T14:09:52.303Z,11.9
2024-05-09T14:15:45.234Z,11.6
2024-05-09T14:20:51.980Z,12
2024-05-09T14:25:52.598Z,12.4
2024-05-09T14:31:45.222Z,12.1
2024-05-09T14:36:45.314Z,11.3
2024-05-09T14:41:52.527Z,11.1
2024-05-09T14:47:45.301Z,13.7
2024-05-09T14:52:45.280Z,12.5
2024-05-09T14:57:52.053Z,10.9
2024-05-09T15:03:45.322Z,12.2
2024-05-09T15:08:52.719Z,10.8
2024-05-09T15:14:45.214Z,11.8
2024-05-09T15:19:45.522Z,12
2024-05-09T15:24:52.023Z,13.4
2024-05-09T15:29:52.671Z,12.2
2024-05-09T15:35:45.215Z,12.8
2024-05-09T15:40:45.279Z,10.9
2024-05-09T15:45:45.320Z,10.5
2024-05-09T15:50:45.458Z,10.1
2024-05-09T15:55:52.525Z,11.6
2024-05-09T16:01:45.403Z,11.8
2024-05-09T16:06:45.292Z,10.2
2024-05-09T16:11:52.164Z,9.4
2024-05-09T16:16:52.289Z,9.3
2024-05-09T16:21:52.659Z,8.2
2024-05-09T16:26:52.612Z,7.2
2024-05-09T16:32:45.302Z,6.9
2024-05-09T16:37:45.276Z,7
2024-05-09T16:42:45.330Z,5
2024-05-09T16:47:52.091Z,5.5
2024-05-09T16:52:52.259Z,6.1
2024-05-09T16:57:53.835Z,5.1
2024-05-09T17:03:45.491Z,4.9
2024-05-09T17:08:52.315Z,5.5
2024-05-09T17:13:52.812Z,3.9
2024-05-09T17:19:45.245Z,3.4
2024-05-09T17:29:45.250Z,3.5
2024-05-09T17:34:45.269Z,4.2
2024-05-09T17:39:45.299Z,3.9
2024-05-09T17:44:47.407Z,5.2
2024-05-09T17:50:21.332Z,4
2024-05-09T17:55:40.553Z,4.6
2024-05-09T18:00:45.501Z,3.9
2024-05-09T18:05:45.638Z,3.4
2024-05-09T18:10:45.442Z,3.6
2024-05-09T18:16:10.727Z,3.5
2024-05-09T18:21:45.330Z,3.3
2024-05-09T18:26:50.915Z,3.2
2024-05-09T18:31:52.827Z,2.8
2024-05-09T18:37:45.281Z,2.2
2024-05-09T18:42:45.312Z,2.7
2024-05-09T18:47:52.308Z,2.4
2024-05-09T18:52:52.906Z,3.9
2024-05-09T18:57:54.405Z,2.4
2024-05-09T19:03:45.467Z,2.9
2024-05-09T19:08:45.271Z,2.3
2024-05-09T19:13:45.983Z,1.9
2024-05-09T19:19:06.149Z,2.2
2024-05-09T19:24:45.317Z,2
2024-05-09T19:29:45.297Z,1.8
2024-05-09T19:34:53.038Z,1.6
2024-05-09T19:40:45.382Z,1.4
2024-05-09T19:45:54.632Z,0.9
2024-05-09T19:51:45.379Z,0.6
2024-05-09T19:56:52.124Z,0.6
2024-05-09T20:02:45.541Z,0.2
2024-05-09T20:07:45.313Z,0.2
2024-05-09T20:12:52.140Z,0
2024-05-09T20:17:53.807Z,0
2024-05-09T20:23:45.330Z,0
2024-05-09T20:28:45.314Z,0
2024-05-09T20:33:45.486Z,0
2024-05-09T20:38:52.507Z,0
2024-05-09T20:49:45.430Z,0
2024-05-09T20:54:53.004Z,0
2024-05-09T21:00:46.429Z,0
2024-05-09T21:05:45.705Z,0
2024-05-09T21:10:52.282Z,0
2024-05-09T21:16:45.424Z,0
2024-05-09T21:21:53.465Z,0
2024-05-09T21:27:45.394Z,0
2024-05-09T21:32:52.147Z,0
2024-05-09T21:37:52.097Z,0
2024-05-09T21:42:52.320Z,0
2024-05-09T21:47:52.777Z,0
2024-05-09T21:52:52.638Z,0
2024-05-09T21:58:45.314Z,0
2024-05-09T22:03:45.446Z,0
2024-05-09T22:08:52.108Z,0
2024-05-09T22:13:52.734Z,0
2024-05-09T22:19:45.417Z,0
2024-05-09T22:24:52.151Z,0
2024-05-09T22:30:45.379Z,0
2024-05-09T22:35:52.570Z,0
2024-05-09T22:41:45.327Z,0
2024-05-09T22:46:45.440Z,0
2024-05-09T22:51:52.198Z,0
2024-05-09T22:56:53.083Z,0
2024-05-09T23:02:45.417Z,0
2024-05-09T23:07:45.401Z,0
2024-05-09T23:12:53.051Z,0
2024-05-09T23:18:45.522Z,0
2024-05-09T23:23:51.769Z,0
2024-05-09T23:28:52.200Z,0
2024-05-09T23:33:53.095Z,0
2024-05-09T23:39:45.434Z,0
2024-05-09T23:44:52.969Z,0
2024-05-09T23:49:53.054Z,0
2024-05-09T23:55:45.368Z,0
